createdAt,value
2019-04-26T00:01:18.332Z,1.43
2019-04-26T00:03:48.694Z,1.43
2019-04-26T00:06:19.206Z,1.40
2019-04-26T00:08:54.114Z,1.30
2019-04-26T00:11:44.836Z,1.30
2019-04-26T00:14:37.430Z,1.10
2019-04-26T00:17:11.717Z,1.17
2019-04-26T00:19:41.726Z,1.47
2019-04-26T00:22:12.926Z,1.37
2019-04-26T00:24:45.113Z,2.30
2019-04-26T00:27:15.203Z,2.90
2019-04-26T00:29:45.170Z,1.20
2019-04-26T00:32:15.423Z,1.10
2019-04-26T00:34:45.665Z,1.10
2019-04-26T00:37:15.937Z,1.50
2019-04-26T00:39:45.986Z,1.20
2019-04-26T00:42:16.532Z,1.17
2019-04-26T00:44:46.573Z,1.30
2019-04-26T00:47:17.051Z,1.20
2019-04-26T00:49:47.276Z,1.17
2019-04-26T00:52:18.241Z,1.10
2019-04-26T00:54:48.581Z,1.37
2019-04-26T00:57:20.206Z,1.30
2019-04-26T00:59:50.715Z,1.43
2019-04-26T01:02:32.649Z,1.27
2019-04-26T01:05:02.782Z,1.40
2019-04-26T01:07:32.672Z,1.40
2019-04-26T01:10:02.786Z,1.30
2019-04-26T01:12:32.857Z,1.20
2019-04-26T01:15:02.829Z,1.20
2019-04-26T01:17:32.579Z,1.10
2019-04-26T01:20:03.597Z,1.40
2019-04-26T01:22:36.525Z,1.60
2019-04-26T01:25:08.214Z,1.30
2019-04-26T01:27:38.893Z,0.90
2019-04-26T01:30:11.520Z,2.07
2019-04-26T01:32:43.686Z,1.00
2019-04-26T01:35:31.891Z,1.90
2019-04-26T01:38:02.921Z,1.40
2019-04-26T01:40:35.118Z,1.87
2019-04-26T01:43:18.108Z,1.83
2019-04-26T01:45:55.158Z,1.20
2019-04-26T01:48:46.711Z,1.30
2019-04-26T01:51:24.455Z,1.30
2019-04-26T01:53:54.388Z,2.03
2019-04-26T01:56:29.272Z,1.00
2019-04-26T01:58:59.634Z,1.47
2019-04-26T02:01:57.991Z,1.30
2019-04-26T02:04:31.934Z,1.23
2019-04-26T02:07:02.444Z,1.17
2019-04-26T02:09:32.814Z,1.30
2019-04-26T02:12:03.266Z,1.93
2019-04-26T02:14:33.610Z,1.10
2019-04-26T02:17:03.600Z,1.10
2019-04-26T02:19:33.969Z,2.40
2019-04-26T02:22:14.355Z,1.90
2019-04-26T02:24:46.384Z,1.30
2019-04-26T02:27:26.251Z,1.20
2019-04-26T02:29:57.017Z,1.20
2019-04-26T02:32:28.993Z,1.17
2019-04-26T02:35:00.171Z,1.20
2019-04-26T02:37:32.196Z,1.80
2019-04-26T02:40:03.434Z,1.20
2019-04-26T02:42:39.234Z,1.17
2019-04-26T02:45:47.319Z,4.00
2019-04-26T02:48:32.635Z,2.67
2019-04-26T02:51:06.263Z,1.10
2019-04-26T02:54:05.991Z,1.10
2019-04-26T02:56:40.142Z,1.13
2019-04-26T02:59:42.619Z,2.00
2019-04-26T03:02:22.418Z,1.37
2019-04-26T03:04:59.401Z,1.50
2019-04-26T03:08:04.093Z,1.30
2019-04-26T03:10:43.777Z,1.40
2019-04-26T03:13:38.743Z,1.40
2019-04-26T03:16:29.227Z,1.53
2019-04-26T03:19:13.223Z,1.40
2019-04-26T03:22:09.103Z,1.40
2019-04-26T03:24:45.940Z,1.53
2019-04-26T03:27:43.497Z,1.40
2019-04-26T03:30:48.717Z,2.27
2019-04-26T03:33:45.242Z,2.67
2019-04-26T03:36:54.097Z,2.50
2019-04-26T03:39:32.892Z,2.17
2019-04-26T03:42:33.157Z,2.10
2019-04-26T03:45:17.051Z,2.47
2019-04-26T03:47:58.102Z,2.50
2019-04-26T03:50:39.569Z,1.70
2019-04-26T03:53:21.251Z,1.70
2019-04-26T03:56:24.309Z,1.47
2019-04-26T03:59:12.773Z,2.87
2019-04-26T04:01:52.189Z,2.73
2019-04-26T04:04:46.714Z,2.00
2019-04-26T04:07:35.705Z,2.30
2019-04-26T04:09:57.783Z,3.23
2019-04-26T04:12:44.430Z,2.90
2019-04-26T04:15:21.264Z,2.57
2019-04-26T04:18:00.215Z,3.80
2019-04-26T04:21:14.893Z,1.80
2019-04-26T04:24:06.651Z,1.90
2019-04-26T04:27:05.343Z,4.33
2019-04-26T04:29:54.534Z,2.37
2019-04-26T04:32:52.183Z,2.03
2019-04-26T04:35:24.480Z,2.10
2019-04-26T04:38:08.431Z,2.70
2019-04-26T04:41:08.523Z,2.77
2019-04-26T04:43:48.350Z,4.03
2019-04-26T04:46:49.799Z,2.43
2019-04-26T04:49:35.175Z,3.60
2019-04-26T04:52:48.003Z,5.70
2019-04-26T04:55:50.053Z,2.77
2019-04-26T04:58:25.626Z,2.20
2019-04-26T05:02:02.743Z,2.63
2019-04-26T05:04:42.737Z,2.07
2019-04-26T05:07:38.229Z,3.33
2019-04-26T05:10:19.218Z,5.13
2019-04-26T05:12:58.713Z,3.70
2019-04-26T05:16:18.854Z,3.00
2019-04-26T05:19:25.507Z,5.43
2019-04-26T05:22:20.282Z,7.10
2019-04-26T05:26:16.819Z,6.43
2019-04-26T05:29:17.386Z,6.37
2019-04-26T05:32:29.648Z,4.67
2019-04-26T05:35:11.499Z,5.77
2019-04-26T05:38:18.095Z,3.30
2019-04-26T05:41:26.890Z,2.40
2019-04-26T05:44:26.762Z,1.93
2019-04-26T05:48:03.185Z,4.00
2019-04-26T05:51:10.384Z,3.00
2019-04-26T05:54:31.135Z,2.60
2019-04-26T05:57:46.003Z,2.67
2019-04-26T06:00:41.999Z,2.13
2019-04-26T06:03:42.079Z,2.63
2019-04-26T06:06:46.634Z,2.33
2019-04-26T06:09:37.861Z,3.20
2019-04-26T06:12:36.235Z,5.53
2019-04-26T06:15:28.829Z,3.30
2019-04-26T06:18:21.366Z,3.30
2019-04-26T06:21:16.646Z,3.70
2019-04-26T06:24:01.993Z,6.03
2019-04-26T06:27:13.138Z,5.00
2019-04-26T06:29:56.722Z,3.97
2019-04-26T06:33:04.769Z,6.60
2019-04-26T06:35:35.382Z,5.93
2019-04-26T06:39:22.078Z,3.63
2019-04-26T06:42:17.505Z,3.83
2019-04-26T06:45:39.414Z,3.43
2019-04-26T06:48:32.439Z,7.20
2019-04-26T06:51:22.449Z,4.67
2019-04-26T06:54:10.440Z,5.83
2019-04-26T06:57:15.243Z,5.37
2019-04-26T06:59:59.194Z,3.30
2019-04-26T07:02:49.941Z,3.63
2019-04-26T07:05:27.978Z,3.50
2019-04-26T07:08:56.726Z,3.60
2019-04-26T07:11:39.512Z,4.27
2019-04-26T07:14:34.809Z,4.10
2019-04-26T07:17:08.981Z,5.83
2019-04-26T07:20:31.854Z,4.97
2019-04-26T07:23:46.209Z,4.50
2019-04-26T07:27:05.955Z,4.43
2019-04-26T07:30:12.727Z,4.80
2019-04-26T07:33:25.550Z,2.10
2019-04-26T07:36:16.416Z,1.63
2019-04-26T07:39:20.409Z,1.20
2019-04-26T07:42:16.179Z,1.57
2019-04-26T07:45:24.874Z,2.30
2019-04-26T07:48:34.561Z,1.53
2019-04-26T07:51:55.741Z,2.90
2019-04-26T07:55:06.638Z,1.30
2019-04-26T07:58:25.282Z,5.90
2019-04-26T08:01:37.786Z,4.90
2019-04-26T08:04:14.029Z,2.27
2019-04-26T08:06:52.498Z,1.47
2019-04-26T08:09:27.543Z,6.77
2019-04-26T08:12:04.601Z,0.87
2019-04-26T08:14:47.417Z,8.87
2019-04-26T08:18:01.563Z,6.43
2019-04-26T08:20:53.199Z,1.50
2019-04-26T08:23:39.691Z,1.77
2019-04-26T08:26:06.134Z,4.13
2019-04-26T08:28:38.215Z,1.70
2019-04-26T08:31:15.407Z,1.40
2019-04-26T08:33:49.852Z,2.27
2019-04-26T08:36:26.611Z,0.90
2019-04-26T08:38:55.294Z,1.43
2019-04-26T08:41:25.562Z,1.10
2019-04-26T08:44:22.443Z,1.07
2019-04-26T08:47:16.085Z,1.77
2019-04-26T08:49:56.554Z,1.77
2019-04-26T08:52:29.942Z,1.43
2019-04-26T08:55:02.347Z,1.20
2019-04-26T08:57:35.583Z,0.70
2019-04-26T09:00:11.691Z,1.50
2019-04-26T09:03:11.524Z,0.90
2019-04-26T09:05:52.683Z,1.37
2019-04-26T09:08:26.506Z,0.87
2019-04-26T09:11:00.098Z,0.97
2019-04-26T09:13:36.766Z,0.80
2019-04-26T09:16:15.474Z,0.93
2019-04-26T09:18:52.617Z,1.50
2019-04-26T09:21:28.970Z,1.57
2019-04-26T09:24:26.661Z,0.83
2019-04-26T09:27:02.916Z,2.33
2019-04-26T09:29:37.161Z,0.83
2019-04-26T09:32:12.451Z,0.83
2019-04-26T09:34:42.801Z,1.40
2019-04-26T09:37:12.862Z,0.70
2019-04-26T09:39:43.473Z,2.40
2019-04-26T09:42:21.946Z,1.07
2019-04-26T09:45:20.175Z,0.63
2019-04-26T09:47:58.328Z,1.07
2019-04-26T09:50:45.762Z,0.63
2019-04-26T09:53:16.282Z,1.47
2019-04-26T09:55:46.138Z,0.77
2019-04-26T09:58:15.986Z,1.17
2019-04-26T10:00:48.429Z,1.07
2019-04-26T10:03:17.750Z,1.10
2019-04-26T10:05:47.530Z,1.33
2019-04-26T10:08:17.591Z,2.77
2019-04-26T10:10:47.298Z,0.97
2019-04-26T10:13:35.378Z,3.00
2019-04-26T10:16:13.251Z,1.00
2019-04-26T10:18:45.859Z,1.17
2019-04-26T10:21:15.910Z,2.20
2019-04-26T10:23:45.662Z,0.80
2019-04-26T10:26:15.522Z,2.00
2019-04-26T10:28:46.737Z,0.80
2019-04-26T10:31:17.389Z,0.83
2019-04-26T10:33:48.536Z,1.83
2019-04-26T10:36:18.411Z,0.90
2019-04-26T10:38:48.069Z,1.03
2019-04-26T10:41:18.096Z,1.20
2019-04-26T10:43:47.927Z,1.17
2019-04-26T10:46:17.766Z,1.47
2019-04-26T10:48:49.860Z,1.23
2019-04-26T10:51:26.316Z,1.57
2019-04-26T10:54:08.787Z,2.87
2019-04-26T10:56:54.854Z,9.30
2019-04-26T10:59:45.320Z,1.10
2019-04-26T11:02:19.350Z,1.30
2019-04-26T11:04:49.362Z,1.50
2019-04-26T11:07:19.184Z,1.10
2019-04-26T11:09:49.232Z,4.83
2019-04-26T11:12:20.439Z,1.60
2019-04-26T11:14:53.424Z,1.10
2019-04-26T11:17:21.874Z,2.20
2019-04-26T11:19:51.627Z,1.33
2019-04-26T11:22:28.952Z,2.30
2019-04-26T11:24:55.024Z,4.27
2019-04-26T11:27:24.858Z,5.10
2019-04-26T11:29:55.095Z,3.23
2019-04-26T11:32:25.140Z,1.80
2019-04-26T11:34:58.776Z,2.13
2019-04-26T11:37:26.377Z,1.23
2019-04-26T11:39:56.120Z,5.43
2019-04-26T11:42:25.885Z,3.90
2019-04-26T11:45:05.741Z,1.80
2019-04-26T11:47:27.598Z,1.53
2019-04-26T11:49:57.338Z,1.60
2019-04-26T11:52:27.468Z,1.10
2019-04-26T11:54:57.241Z,1.43
2019-04-26T11:57:26.942Z,1.13
2019-04-26T11:59:56.679Z,0.80
2019-04-26T12:02:28.915Z,0.90
2019-04-26T12:05:18.092Z,1.57
2019-04-26T12:07:54.774Z,0.83
2019-04-26T12:10:27.126Z,1.23
2019-04-26T12:13:05.653Z,1.80
2019-04-26T12:15:30.363Z,0.97
2019-04-26T12:17:59.548Z,1.30
2019-04-26T12:20:29.556Z,1.63
2019-04-26T12:22:59.856Z,1.20
2019-04-26T12:25:31.097Z,1.77
2019-04-26T12:28:01.901Z,1.20
2019-04-26T12:30:33.599Z,0.93
2019-04-26T12:33:03.970Z,1.40
2019-04-26T12:35:33.949Z,1.20
2019-04-26T12:38:03.966Z,2.60
2019-04-26T12:40:33.646Z,1.73
2019-04-26T12:43:03.433Z,2.23
2019-04-26T12:45:41.603Z,0.83
2019-04-26T12:48:15.829Z,2.63
2019-04-26T12:50:44.659Z,1.00
2019-04-26T12:53:14.356Z,0.90
2019-04-26T12:55:44.436Z,0.90
2019-04-26T12:58:15.260Z,1.57
2019-04-26T13:00:53.790Z,0.80
2019-04-26T13:03:20.376Z,1.30
2019-04-26T13:05:49.768Z,1.00
2019-04-26T13:08:19.726Z,0.73
2019-04-26T13:10:59.092Z,1.30
2019-04-26T13:13:42.025Z,0.60
2019-04-26T13:16:29.506Z,1.30
2019-04-26T13:18:59.234Z,1.30
2019-04-26T13:21:29.410Z,1.10
2019-04-26T13:24:00.222Z,1.10
2019-04-26T13:26:34.842Z,1.27
2019-04-26T13:29:02.391Z,1.77
2019-04-26T13:31:32.140Z,1.73
2019-04-26T13:34:03.021Z,2.20
2019-04-26T13:36:33.988Z,2.67
2019-04-26T13:39:08.001Z,1.53
2019-04-26T13:41:38.737Z,2.97
2019-04-26T13:44:09.930Z,0.97
2019-04-26T13:47:10.703Z,3.97
2019-04-26T13:49:48.291Z,3.77
2019-04-26T13:52:18.167Z,1.07
2019-04-26T13:54:51.149Z,1.43
2019-04-26T13:57:19.483Z,2.50
2019-04-26T13:59:49.270Z,1.43
2019-04-26T14:02:19.036Z,1.77
2019-04-26T14:04:48.886Z,1.97
2019-04-26T14:07:20.125Z,2.40
2019-04-26T14:09:50.171Z,3.77
2019-04-26T14:12:20.521Z,3.80
2019-04-26T14:14:50.537Z,2.00
2019-04-26T14:17:20.286Z,1.43
2019-04-26T14:19:51.126Z,2.20
2019-04-26T14:22:23.554Z,2.07
2019-04-26T14:25:02.142Z,1.70
2019-04-26T14:27:36.206Z,1.30
2019-04-26T14:30:08.304Z,1.63
2019-04-26T14:32:38.102Z,1.30
2019-04-26T14:35:11.362Z,2.20
2019-04-26T14:37:39.553Z,1.13
2019-04-26T14:40:17.358Z,1.00
2019-04-26T14:42:46.067Z,0.97
2019-04-26T14:45:22.749Z,0.80
2019-04-26T14:47:47.666Z,2.03
2019-04-26T14:50:15.866Z,0.93
2019-04-26T14:52:45.615Z,1.17
2019-04-26T14:55:16.361Z,0.87
2019-04-26T14:57:51.286Z,1.33
2019-04-26T15:00:22.346Z,0.90
2019-04-26T15:02:59.474Z,4.90
2019-04-26T15:05:46.380Z,1.10
2019-04-26T15:08:15.366Z,1.47
2019-04-26T15:10:48.842Z,1.27
2019-04-26T15:13:20.655Z,2.00
2019-04-26T15:15:48.562Z,1.00
2019-04-26T15:18:18.307Z,1.20
2019-04-26T15:20:48.415Z,1.33
2019-04-26T15:23:19.333Z,1.10
2019-04-26T15:25:49.961Z,1.57
2019-04-26T15:28:19.933Z,1.50
2019-04-26T15:30:49.743Z,1.50
2019-04-26T15:33:19.819Z,1.33
2019-04-26T15:35:49.598Z,1.27
2019-04-26T15:38:19.424Z,1.00
2019-04-26T15:41:11.464Z,1.47
2019-04-26T15:43:56.476Z,11.40
2019-04-26T15:46:48.494Z,2.27
2019-04-26T15:49:34.160Z,2.97
2019-04-26T15:52:01.515Z,1.53
2019-04-26T15:54:32.382Z,1.47
2019-04-26T15:57:02.602Z,3.13
2019-04-26T15:59:35.424Z,11.40
2019-04-26T16:02:05.413Z,1.40
2019-04-26T16:04:35.418Z,1.00
2019-04-26T16:07:05.326Z,1.77
2019-04-26T16:09:35.036Z,1.40
2019-04-26T16:12:04.875Z,3.03
2019-04-26T16:14:36.834Z,3.40
2019-04-26T16:17:06.693Z,2.60
2019-04-26T16:19:36.931Z,2.80
2019-04-26T16:22:06.999Z,2.80
2019-04-26T16:24:37.218Z,3.67
2019-04-26T16:27:06.970Z,5.87
2019-04-26T16:30:04.132Z,8.87
2019-04-26T16:32:47.218Z,4.57
2019-04-26T16:35:18.283Z,4.47
2019-04-26T16:37:47.091Z,4.20
2019-04-26T16:40:17.184Z,7.23
2019-04-26T16:42:49.690Z,3.30
2019-04-26T16:45:18.847Z,3.57
2019-04-26T16:47:48.899Z,3.27
2019-04-26T16:50:23.250Z,2.57
2019-04-26T16:52:50.499Z,2.33
2019-04-26T16:55:21.236Z,2.57
2019-04-26T16:57:55.680Z,1.87
2019-04-26T17:00:47.295Z,2.07
2019-04-26T17:03:02.765Z,3.87
2019-04-26T17:05:45.382Z,2.47
2019-04-26T17:07:59.046Z,1.60
2019-04-26T17:10:29.398Z,2.97
2019-04-26T17:12:59.330Z,2.77
2019-04-26T17:15:29.362Z,2.00
2019-04-26T17:17:59.038Z,2.40
2019-04-26T17:20:29.194Z,2.83
2019-04-26T17:23:08.155Z,6.37
2019-04-26T17:26:09.235Z,3.23
2019-04-26T17:28:39.067Z,2.07
2019-04-26T17:31:08.919Z,4.47
2019-04-26T17:33:40.491Z,3.40
2019-04-26T17:36:11.446Z,5.67
2019-04-26T17:38:44.838Z,6.43
2019-04-26T17:41:14.957Z,3.57
2019-04-26T17:43:47.521Z,3.47
2019-04-26T17:46:18.260Z,4.17
2019-04-26T17:48:49.384Z,5.53
2019-04-26T17:51:22.944Z,5.57
2019-04-26T17:54:18.638Z,3.00
2019-04-26T17:56:25.967Z,2.50
2019-04-26T17:58:55.057Z,4.87
2019-04-26T18:01:42.135Z,4.07
2019-04-26T18:03:56.893Z,3.60
2019-04-26T18:06:29.714Z,4.97
2019-04-26T18:08:58.069Z,3.40
2019-04-26T18:11:27.780Z,3.00
2019-04-26T18:13:57.776Z,3.13
2019-04-26T18:16:29.695Z,3.37
2019-04-26T18:19:16.778Z,4.80
2019-04-26T18:22:14.125Z,3.77
2019-04-26T18:24:43.595Z,6.37
2019-04-26T18:27:14.825Z,3.40
2019-04-26T18:29:44.874Z,6.33
2019-04-26T18:32:15.306Z,3.47
2019-04-26T18:34:44.978Z,2.37
2019-04-26T18:37:15.022Z,4.83
2019-04-26T18:39:45.057Z,4.87
2019-04-26T18:42:14.965Z,5.33
2019-04-26T18:44:47.993Z,9.20
2019-04-26T18:47:25.665Z,4.37
2019-04-26T18:49:58.215Z,5.97
2019-04-26T18:52:26.319Z,18.10
2019-04-26T18:55:13.015Z,7.07
2019-04-26T18:57:47.404Z,4.10
2019-04-26T19:00:27.688Z,3.43
2019-04-26T19:02:55.416Z,5.07
2019-04-26T19:05:29.782Z,4.40
2019-04-26T19:07:58.006Z,4.70
2019-04-26T19:10:29.277Z,7.30
2019-04-26T19:13:07.177Z,4.47
2019-04-26T19:16:03.410Z,2.90
2019-04-26T19:18:51.839Z,3.10
2019-04-26T19:21:32.383Z,2.57
2019-04-26T19:24:07.244Z,2.77
2019-04-26T19:26:35.180Z,4.03
2019-04-26T19:29:15.615Z,5.57
2019-04-26T19:31:36.734Z,3.40
2019-04-26T19:34:06.509Z,3.67
2019-04-26T19:36:36.917Z,4.60
2019-04-26T19:39:07.804Z,2.30
2019-04-26T19:41:37.539Z,3.17
2019-04-26T19:44:07.390Z,4.27
2019-04-26T19:46:44.359Z,3.07
2019-04-26T19:49:36.893Z,2.80
2019-04-26T19:52:45.041Z,2.63
2019-04-26T19:55:35.395Z,2.50
2019-04-26T19:58:16.233Z,3.43
2019-04-26T20:00:46.602Z,3.23
2019-04-26T20:03:16.782Z,2.67
2019-04-26T20:05:48.934Z,3.23
2019-04-26T20:08:18.888Z,3.33
2019-04-26T20:10:52.134Z,3.40
2019-04-26T20:13:22.304Z,3.20
2019-04-26T20:15:53.121Z,3.57
2019-04-26T20:18:23.794Z,4.37
2019-04-26T20:20:53.891Z,49.90
2019-04-26T20:23:23.771Z,33.73
2019-04-26T20:25:53.794Z,55.90
2019-04-26T20:28:23.842Z,90.73
2019-04-26T20:31:06.577Z,126.43
2019-04-26T20:33:34.980Z,31.87
2019-04-26T20:36:04.782Z,11.13
2019-04-26T20:38:42.698Z,8.80
2019-04-26T20:41:06.763Z,8.77
2019-04-26T20:43:43.757Z,8.97
2019-04-26T20:46:14.932Z,106.63
2019-04-26T20:48:39.615Z,61.10
2019-04-26T20:51:12.978Z,21.33
2019-04-26T20:53:43.767Z,18.50
2019-04-26T20:56:18.194Z,8.90
2019-04-26T20:58:46.991Z,7.17
2019-04-26T21:01:17.404Z,7.63
2019-04-26T21:03:47.362Z,6.37
2019-04-26T21:06:17.141Z,4.47
2019-04-26T21:08:46.967Z,6.80
2019-04-26T21:11:16.714Z,6.93
2019-04-26T21:13:46.530Z,6.60
2019-04-26T21:16:16.779Z,4.13
2019-04-26T21:18:46.465Z,4.67
2019-04-26T21:21:16.567Z,4.23
2019-04-26T21:23:49.828Z,4.07
2019-04-26T21:26:42.423Z,5.23
2019-04-26T21:29:24.343Z,5.60
2019-04-26T21:32:02.132Z,3.77
2019-04-26T21:34:34.762Z,3.33
2019-04-26T21:37:17.226Z,3.57
2019-04-26T21:39:54.862Z,2.30
2019-04-26T21:42:25.869Z,3.00
2019-04-26T21:44:55.980Z,3.47
2019-04-26T21:47:27.652Z,3.07
2019-04-26T21:49:58.850Z,5.40
2019-04-26T21:52:29.386Z,3.40
2019-04-26T21:54:59.490Z,3.73
2019-04-26T21:57:31.665Z,4.33
2019-04-26T22:00:00.658Z,4.77
2019-04-26T22:02:36.090Z,4.07
2019-04-26T22:05:03.513Z,5.20
2019-04-26T22:07:35.120Z,5.27
2019-04-26T22:10:24.573Z,3.67
2019-04-26T22:12:54.630Z,4.87
2019-04-26T22:15:38.822Z,4.03
2019-04-26T22:18:14.917Z,3.00
2019-04-26T22:21:00.312Z,5.00
2019-04-26T22:23:47.582Z,3.40
2019-04-26T22:26:16.658Z,3.53
2019-04-26T22:28:46.747Z,2.47
2019-04-26T22:31:16.870Z,3.43
2019-04-26T22:33:46.622Z,2.10
2019-04-26T22:36:16.691Z,3.03
2019-04-26T22:38:48.387Z,5.53
2019-04-26T22:41:18.271Z,4.13
2019-04-26T22:44:13.829Z,5.03
2019-04-26T22:46:53.901Z,3.83
2019-04-26T22:49:23.947Z,4.07
2019-04-26T22:51:55.332Z,4.27
2019-04-26T22:54:25.527Z,2.50
2019-04-26T22:56:58.588Z,4.00
2019-04-26T22:59:28.414Z,2.30
2019-04-26T23:01:58.562Z,2.50
2019-04-26T23:04:28.454Z,4.90
2019-04-26T23:06:58.854Z,2.07
2019-04-26T23:09:30.398Z,3.23
2019-04-26T23:12:07.538Z,4.53
2019-04-26T23:14:59.562Z,3.00
2019-04-26T23:17:47.241Z,2.97
2019-04-26T23:20:46.619Z,2.50
2019-04-26T23:23:17.225Z,2.90
2019-04-26T23:25:47.006Z,2.83
2019-04-26T23:28:17.054Z,3.80
2019-04-26T23:30:47.285Z,3.43
2019-04-26T23:33:17.176Z,3.50
2019-04-26T23:35:47.711Z,4.97
2019-04-26T23:38:17.759Z,5.10
2019-04-26T23:40:47.487Z,6.43
2019-04-26T23:43:17.343Z,3.80
2019-04-26T23:45:48.287Z,2.70
2019-04-26T23:48:18.726Z,6.47
2019-04-26T23:50:50.078Z,2.60
2019-04-26T23:53:20.534Z,2.77
2019-04-26T23:55:51.370Z,6.30
2019-04-26T23:58:23.027Z,3.83
